Villa Gesell, Argentina
Current Conditions -  °F | °C
As of 1:00 PM on Monday 22 Dec 2014 (Local Time) from SAZM Reporting Station
Scattered Clouds Scattered Clouds  
Wind Chill: 63°   Ceiling: Unl
Heat Index: 63°   Visibility: 6mi
Dew Point: 41°   Wind: 3mph
Humidity: 45%   Direction: 250°WSW
Pressure: 30.03"   Gusts: NA
Location:  37.25°S, 56.92°W
Report Text: SAZM 221600Z 25003KT 9999 FEW025TCU SCT030 17/05 Q1017
Loading
Personal Weather Stations






























Interactive Weather Map New forecast layout! Learn more

10-Day Weather Forecast

Advertisements
Track Severe Weather on mobile